Terminal Aerodrome Forecast
Issued by NWS North Platte, NE

Home | Current Version | Previous Version | Graphics & Text | Print | Product List | Glossary On
Versions: 1 2 3 4 5 6 7 8 9 10 11 12 13 14 15 16 17 18 19 20 21 22 23 24 25 26 27 28 29 30
174
FTUS43 KLBF 140438 CCA
TAFVTN
TAF COR
KVTN 140438Z 1405/1424 29016G24KT P6SM BKN026 OVC035
      TEMPO 1405/1407 5SM -SHSN SCT025 OVC035
     FM141400 29012KT P6SM SCT250=

USA.gov is the U.S. government's official web portal to all federal, state and local government web resources and services.